Time,TemperatureF,DewpointF,PressureIn,WindDirection,WindDirectionDegrees,WindSpeedMPH,WindSpeedGustMPH,Humidity,HourlyPrecipIn,Conditions,Clouds,dailyrainin,SoftwareType,DateUTC
2013-08-10 00:00:00,75.1,73.3,30.10,SW,236,0.0,0.0,94,0.00,,CLR,0.00,VWS V14.01,2013-08-10 04:00:00,
2013-08-10 00:13:00,75.2,73.4,30.11,SW,236,0.0,0.0,94,0.00,,CLR,0.00,VWS V14.01,2013-08-10 04:13:00,
2013-08-10 00:28:00,75.3,73.5,30.11,SW,236,0.0,1.3,94,0.00,,CLR,0.00,VWS V14.01,2013-08-10 04:28:00,
2013-08-10 00:43:00,75.5,73.7,30.11,SW,236,1.3,1.3,94,0.00,,CLR,0.00,VWS V14.01,2013-08-10 04:43:00,
2013-08-10 00:58:00,75.3,73.5,30.11,SW,236,0.0,1.3,94,0.00,,CLR,0.00,VWS V14.01,2013-08-10 04:58:00,
2013-08-10 01:13:00,75.6,73.4,30.10,SW,236,0.0,0.0,93,0.00,,SCT045,0.00,VWS V14.01,2013-08-10 05:13:00,
2013-08-10 01:28:00,75.4,73.6,30.10,SW,236,0.0,1.3,94,0.00,,SCT045,0.00,VWS V14.01,2013-08-10 05:28:00,
2013-08-10 01:43:00,75.5,73.7,30.10,SW,236,0.0,0.0,94,0.00,,SCT045,0.00,VWS V14.01,2013-08-10 05:43:00,
2013-08-10 01:58:00,75.4,73.6,30.10,SW,236,0.0,0.0,94,0.00,,SCT045,0.00,VWS V14.01,2013-08-10 05:58:00,
2013-08-10 02:13:00,75.5,73.7,30.10,SW,236,0.0,1.3,94,0.00,,,0.00,VWS V14.01,2013-08-10 06:13:00,
2013-08-10 02:28:00,75.7,73.5,30.10,SW,236,0.0,1.3,93,0.00,,,0.00,VWS V14.01,2013-08-10 06:28:00,
2013-08-10 02:43:00,75.7,73.5,30.09,SW,236,0.0,2.6,93,0.00,,,0.00,VWS V14.01,2013-08-10 06:43:00,
2013-08-10 02:58:00,75.8,73.6,30.09,SW,236,0.0,0.0,93,0.00,,,0.00,VWS V14.01,2013-08-10 06:58:00,
2013-08-10 03:13:00,75.4,73.2,30.09,SW,236,0.0,0.0,93,0.00,,CLR,0.00,VWS V14.01,2013-08-10 07:13:00,
2013-08-10 03:28:00,75.0,73.2,30.08,SW,236,1.3,1.3,94,0.00,,CLR,0.00,VWS V14.01,2013-08-10 07:28:00,
2013-08-10 03:43:00,75.3,73.5,30.08,SW,236,0.0,1.3,94,0.00,,CLR,0.00,VWS V14.01,2013-08-10 07:43:00,
2013-08-10 03:58:00,75.5,73.7,30.09,SW,236,0.0,1.3,94,0.00,,CLR,0.00,VWS V14.01,2013-08-10 07:58:00,
2013-08-10 04:13:00,75.8,73.9,30.09,SW,236,2.6,3.9,94,0.00,,FEW048,0.00,VWS V14.01,2013-08-10 08:13:00,
2013-08-10 04:28:00,76.2,74.0,30.09,SW,236,0.0,1.3,93,0.00,,FEW048,0.00,VWS V14.01,2013-08-10 08:28:00,
2013-08-10 04:43:00,75.7,73.5,30.09,SW,236,0.0,1.3,93,0.00,,FEW048,0.00,VWS V14.01,2013-08-10 08:43:00,
2013-08-10 04:58:00,75.4,73.6,30.09,SW,236,1.3,1.3,94,0.00,,FEW048,0.00,VWS V14.01,2013-08-10 08:58:00,
2013-08-10 05:13:00,75.4,73.6,30.09,SW,236,0.0,1.3,94,0.00,,,0.00,VWS V14.01,2013-08-10 09:13:00,
2013-08-10 05:28:00,75.1,73.6,30.08,SW,232,2.6,3.9,95,0.00,,,0.00,VWS V14.01,2013-08-10 09:28:00,
2013-08-10 05:43:00,75.0,73.5,30.09,SW,232,0.0,0.0,95,0.00,,,0.00,VWS V14.01,2013-08-10 09:43:00,
2013-08-10 05:58:00,74.7,73.2,30.09,SW,231,1.3,2.6,95,0.00,,,0.00,VWS V14.01,2013-08-10 09:58:00,
2013-08-10 06:13:00,74.9,73.4,30.09,SSW,212,0.0,3.9,95,0.00,,,0.00,VWS V14.01,2013-08-10 10:13:00,
2013-08-10 06:28:00,75.0,73.5,30.10,SSW,204,2.6,5.2,95,0.00,,,0.00,VWS V14.01,2013-08-10 10:28:00,
2013-08-10 06:43:00,75.1,73.9,30.10,SSW,204,2.6,3.9,96,0.00,,,0.00,VWS V14.01,2013-08-10 10:43:00,
2013-08-10 06:58:00,75.0,73.8,30.10,South,188,2.6,3.9,96,0.00,,,0.00,VWS V14.01,2013-08-10 10:58:00,
2013-08-10 07:13:00,74.8,73.6,30.11,WSW,240,1.3,3.9,96,0.00,,,0.00,VWS V14.01,2013-08-10 11:13:00,
2013-08-10 07:28:00,74.6,73.4,30.11,SSE,156,2.6,5.2,96,0.00,,,0.00,VWS V14.01,2013-08-10 11:28:00,
2013-08-10 07:43:00,74.6,73.4,30.11,SSW,212,5.2,9.1,96,0.00,,,0.00,VWS V14.01,2013-08-10 11:43:00,
2013-08-10 07:58:00,75.0,74.1,30.11,West,265,5.2,5.2,97,0.00,,,0.00,VWS V14.01,2013-08-10 11:58:00,
2013-08-10 08:13:00,75.2,74.3,30.12,South,189,1.3,5.2,97,0.00,,,0.00,VWS V14.01,2013-08-10 12:13:00,
2013-08-10 08:28:00,75.3,74.4,30.12,South,191,6.5,7.8,97,0.00,,,0.00,VWS V14.01,2013-08-10 12:28:00,
2013-08-10 08:43:00,75.6,74.7,30.12,WSW,248,3.9,9.1,97,0.00,,,0.00,VWS V14.01,2013-08-10 12:43:00,
2013-08-10 08:58:00,75.9,74.7,30.13,SW,233,3.9,9.1,96,0.00,,FEW003,0.00,VWS V14.01,2013-08-10 12:58:00,
2013-08-10 09:13:00,76.7,75.2,30.13,West,281,2.6,10.4,95,0.00,,FEW003,0.00,VWS V14.01,2013-08-10 13:13:00,
2013-08-10 09:28:00,77.8,75.6,30.13,East,101,5.2,10.4,93,0.00,,FEW003,0.00,VWS V14.01,2013-08-10 13:28:00,
2013-08-10 09:43:00,79.1,76.2,30.12,South,181,3.9,5.2,91,0.00,,FEW003,0.00,VWS V14.01,2013-08-10 13:43:00,
2013-08-10 09:58:00,80.4,76.5,30.12,SW,229,5.2,5.2,88,0.00,,FEW003,0.00,VWS V14.01,2013-08-10 13:58:00,
2013-08-10 10:13:00,81.6,77.4,30.13,SW,221,6.5,6.5,87,0.00,,CLR,0.00,VWS V14.01,2013-08-10 14:13:00,
2013-08-10 10:28:00,82.0,77.1,30.13,South,175,5.2,11.7,85,0.00,,CLR,0.00,VWS V14.01,2013-08-10 14:28:00,
2013-08-10 10:43:00,82.6,77.3,30.12,WSW,248,6.5,11.7,84,0.00,,CLR,0.00,VWS V14.01,2013-08-10 14:43:00,
2013-08-10 10:58:00,83.4,78.1,30.13,SSW,209,0.0,9.1,84,0.00,,CLR,0.00,VWS V14.01,2013-08-10 14:58:00,
2013-08-10 11:13:00,83.8,77.0,30.13,West,266,7.8,16.9,80,0.00,,FEW023,0.00,VWS V14.01,2013-08-10 15:13:00,
2013-08-10 11:28:00,84.7,78.2,30.13,WSW,239,3.9,7.8,81,0.00,,FEW023,0.00,VWS V14.01,2013-08-10 15:28:00,
2013-08-10 11:43:00,85.4,78.2,30.13,SW,219,1.3,10.4,79,0.00,,FEW023,0.00,VWS V14.01,2013-08-10 15:43:00,
2013-08-10 11:58:00,86.1,78.8,30.13,West,263,5.2,7.8,79,0.00,,FEW023,0.00,VWS V14.01,2013-08-10 15:58:00,
2013-08-10 12:13:00,86.4,77.9,30.12,South,180,7.8,11.7,76,0.00,,FEW028,0.00,VWS V14.01,2013-08-10 16:13:00,
2013-08-10 12:28:00,87.0,78.5,30.12,West,260,5.2,5.2,76,0.00,,FEW028,0.00,VWS V14.01,2013-08-10 16:28:00,
2013-08-10 12:43:00,86.9,78.4,30.11,WNW,290,1.3,11.7,76,0.00,,FEW028,0.00,VWS V14.01,2013-08-10 16:43:00,
2013-08-10 12:58:00,86.7,77.4,30.10,SW,227,7.8,11.7,74,0.00,,FEW028,0.00,VWS V14.01,2013-08-10 16:58:00,
2013-08-10 13:13:00,86.8,77.9,30.10,SSW,194,2.6,13.0,75,0.00,,CLR,0.00,VWS V14.01,2013-08-10 17:13:00,
2013-08-10 13:28:00,87.4,78.5,30.11,SW,230,6.5,13.0,75,0.00,,CLR,0.00,VWS V14.01,2013-08-10 17:28:00,
2013-08-10 13:43:00,88.0,77.4,30.10,SSW,208,5.2,10.4,71,0.00,,CLR,0.00,VWS V14.01,2013-08-10 17:43:00,
2013-08-10 13:58:00,88.1,77.9,30.10,WSW,254,10.4,13.0,72,0.00,,CLR,0.00,VWS V14.01,2013-08-10 17:58:00,
2013-08-10 14:13:00,88.8,77.8,30.10,SW,227,6.5,13.0,70,0.00,,FEW037,0.00,VWS V14.01,2013-08-10 18:13:00,
2013-08-10 14:28:00,84.2,74.2,30.12,South,188,2.6,6.5,72,0.00,,FEW037,0.00,VWS V14.01,2013-08-10 18:28:00,
2013-08-10 14:43:00,78.7,72.8,30.14,SSE,167,3.9,10.4,82,0.00,,FEW037,0.00,VWS V14.01,2013-08-10 18:43:00,
2013-08-10 14:58:00,74.4,71.6,30.13,NNE,18,1.3,5.2,91,0.35,,FEW037,0.35,VWS V14.01,2013-08-10 18:58:00,
2013-08-10 15:13:00,75.2,73.0,30.13,WNW,287,3.9,3.9,93,0.36,,SCT055,0.36,VWS V14.01,2013-08-10 19:13:00,
2013-08-10 15:28:00,76.4,73.9,30.12,SSW,207,1.3,2.6,92,0.36,,-RA,0.36,VWS V14.01,2013-08-10 19:28:00,
2013-08-10 15:43:00,77.5,73.7,30.11,SSW,207,0.0,2.6,88,0.36,,BKN065,0.36,VWS V14.01,2013-08-10 19:43:00,
2013-08-10 15:58:00,79.4,74.5,30.09,SSW,207,0.0,1.3,85,0.36,,BKN065,0.36,VWS V14.01,2013-08-10 19:58:00,
2013-08-10 16:13:00,80.4,75.8,30.09,SSE,162,0.0,1.3,86,0.01,,FEW060,0.36,VWS V14.01,2013-08-10 20:13:00,
2013-08-10 16:28:00,81.4,76.1,30.08,SE,126,0.0,1.3,84,0.00,,FEW060,0.36,VWS V14.01,2013-08-10 20:28:00,
2013-08-10 16:43:00,82.5,76.1,30.08,ENE,67,0.0,1.3,81,0.00,,FEW060,0.36,VWS V14.01,2013-08-10 20:43:00,
2013-08-10 16:58:00,83.7,76.1,30.08,ENE,60,0.0,1.3,78,0.00,,FEW060,0.36,VWS V14.01,2013-08-10 20:58:00,
2013-08-10 17:13:00,86.2,78.2,30.08,ENE,63,0.0,1.3,77,0.00,,CLR,0.36,VWS V14.01,2013-08-10 21:13:00,
2013-08-10 17:28:00,86.5,77.6,30.08,ENE,64,0.0,1.3,75,0.00,,CLR,0.36,VWS V14.01,2013-08-10 21:28:00,
2013-08-10 17:43:00,86.8,77.5,30.09,SSW,207,1.3,3.9,74,0.00,,CLR,0.36,VWS V14.01,2013-08-10 21:43:00,
2013-08-10 17:58:00,86.1,78.1,30.09,South,177,1.3,2.6,77,0.00,,CLR,0.36,VWS V14.01,2013-08-10 21:58:00,
2013-08-10 18:13:00,86.4,77.9,30.09,South,177,0.0,2.6,76,0.00,,CLR,0.36,VWS V14.01,2013-08-10 22:13:00,
2013-08-10 18:28:00,85.8,77.0,30.09,South,178,0.0,1.3,75,0.00,,CLR,0.36,VWS V14.01,2013-08-10 22:28:00,
2013-08-10 18:43:00,83.2,76.8,30.09,South,178,0.0,1.3,81,0.00,,CLR,0.36,VWS V14.01,2013-08-10 22:43:00,
2013-08-10 18:58:00,81.4,76.1,30.09,South,178,0.0,0.0,84,0.00,,CLR,0.36,VWS V14.01,2013-08-10 22:58:00,
2013-08-10 19:13:00,79.7,75.5,30.11,South,178,0.0,1.3,87,0.00,,CLR,0.36,VWS V14.01,2013-08-10 23:13:00,
2013-08-10 19:28:00,80.1,75.2,30.12,WSW,254,9.1,9.1,85,0.00,,CLR,0.36,VWS V14.01,2013-08-10 23:28:00,
2013-08-10 19:43:00,79.4,73.8,30.11,SSW,210,0.0,9.1,83,0.00,,CLR,0.36,VWS V14.01,2013-08-10 23:43:00,
2013-08-10 19:58:00,78.3,73.4,30.12,North,355,1.3,6.5,85,0.00,,CLR,0.36,VWS V14.01,2013-08-10 23:58:00,
2013-08-10 20:13:00,78.0,73.5,30.12,NNE,26,0.0,0.0,86,0.00,,BKN042,0.36,VWS V14.01,2013-08-11 00:13:00,
2013-08-10 20:28:00,77.3,72.8,30.12,NNE,26,0.0,0.0,86,0.00,,SCT040,0.36,VWS V14.01,2013-08-11 00:28:00,
2013-08-10 20:43:00,76.7,72.9,30.13,ENE,57,0.0,0.0,88,0.00,,FEW040,0.36,VWS V14.01,2013-08-11 00:43:00,
2013-08-10 20:58:00,76.1,72.3,30.13,WNW,298,0.0,0.0,88,0.00,,CLR,0.36,VWS V14.01,2013-08-11 00:58:00,
2013-08-10 21:13:00,75.3,71.5,30.13,WNW,298,0.0,0.0,88,0.00,,CLR,0.36,VWS V14.01,2013-08-11 01:13:00,
2013-08-10 21:28:00,75.0,71.5,30.12,WNW,298,0.0,0.0,89,0.00,,CLR,0.36,VWS V14.01,2013-08-11 01:28:00,
2013-08-10 21:43:00,74.7,71.6,30.13,WNW,298,0.0,0.0,90,0.00,,CLR,0.36,VWS V14.01,2013-08-11 01:43:00,
2013-08-10 21:58:00,74.4,71.3,30.13,WNW,298,0.0,0.0,90,0.00,,CLR,0.36,VWS V14.01,2013-08-11 01:58:00,
2013-08-10 22:13:00,73.6,70.8,30.13,WNW,298,0.0,0.0,91,0.00,,FEW090,0.36,VWS V14.01,2013-08-11 02:13:00,
2013-08-10 22:28:00,72.9,70.4,30.13,WNW,298,0.0,0.0,92,0.00,,FEW090,0.36,VWS V14.01,2013-08-11 02:28:00,
2013-08-10 22:43:00,72.8,71.0,30.13,WNW,298,0.0,1.3,94,0.00,,FEW090,0.36,VWS V14.01,2013-08-11 02:43:00,
2013-08-10 22:58:00,72.9,70.8,30.13,WNW,298,0.0,0.0,93,0.00,,FEW090,0.36,VWS V14.01,2013-08-11 02:58:00,
2013-08-10 23:13:00,72.5,70.7,30.13,WNW,297,0.0,0.0,94,0.00,,CLR,0.36,VWS V14.01,2013-08-11 03:13:00,
2013-08-10 23:28:00,72.1,70.3,30.13,WNW,298,0.0,0.0,94,0.00,,CLR,0.36,VWS V14.01,2013-08-11 03:28:00,